sensor_id;sensor_type;location;lat;lon;timestamp;pressure;altitude;pressure_sealevel;temperature;humidity
71126;BME280;58785;55.566;38.058;2023-11-21T00:00:14;99787.13;;;-6.38;72.81
71126;BME280;58785;55.566;38.058;2023-11-21T00:02:40;99790.44;;;-6.34;72.61
71126;BME280;58785;55.566;38.058;2023-11-21T00:05:10;99791.34;;;-6.35;72.69
71126;BME280;58785;55.566;38.058;2023-11-21T00:07:37;99788.25;;;-6.46;72.89
71126;BME280;58785;55.566;38.058;2023-11-21T00:10:03;99792.75;;;-6.51;72.97
71126;BME280;58785;55.566;38.058;2023-11-21T00:12:31;99794.06;;;-6.38;72.97
71126;BME280;58785;55.566;38.058;2023-11-21T00:14:57;99796.75;;;-6.41;72.97
71126;BME280;58785;55.566;38.058;2023-11-21T00:17:23;99799.47;;;-6.46;73.00
71126;BME280;58785;55.566;38.058;2023-11-21T00:19:50;99787.19;;;-6.39;72.79
71126;BME280;58785;55.566;38.058;2023-11-21T00:22:17;99787.97;;;-6.37;72.39
71126;BME280;58785;55.566;38.058;2023-11-21T00:24:44;99783.78;;;-6.41;72.66
71126;BME280;58785;55.566;38.058;2023-11-21T00:27:10;99785.38;;;-6.37;72.60
71126;BME280;58785;55.566;38.058;2023-11-21T00:29:35;99785.31;;;-6.35;72.74
71126;BME280;58785;55.566;38.058;2023-11-21T00:32:01;99774.03;;;-6.34;73.01
71126;BME280;58785;55.566;38.058;2023-11-21T00:34:27;99787.44;;;-6.22;72.82
71126;BME280;58785;55.566;38.058;2023-11-21T00:36:53;99796.91;;;-6.19;72.61
71126;BME280;58785;55.566;38.058;2023-11-21T00:39:18;99789.97;;;-6.19;72.51
71126;BME280;58785;55.566;38.058;2023-11-21T00:41:44;99809.38;;;-6.30;72.68
71126;BME280;58785;55.566;38.058;2023-11-21T00:44:10;99787.81;;;-6.32;73.05
71126;BME280;58785;55.566;38.058;2023-11-21T00:46:36;99788.75;;;-6.35;72.64
71126;BME280;58785;55.566;38.058;2023-11-21T00:49:02;99786.16;;;-6.35;73.04
71126;BME280;58785;55.566;38.058;2023-11-21T00:51:30;99779.84;;;-6.26;73.31
71126;BME280;58785;55.566;38.058;2023-11-21T00:53:56;99782.06;;;-6.16;72.50
71126;BME280;58785;55.566;38.058;2023-11-21T00:56:21;99781.47;;;-6.24;72.28
71126;BME280;58785;55.566;38.058;2023-11-21T00:58:47;99783.16;;;-6.23;72.49
71126;BME280;58785;55.566;38.058;2023-11-21T01:01:16;99784.06;;;-6.24;72.03
71126;BME280;58785;55.566;38.058;2023-11-21T01:03:42;99797.25;;;-6.30;72.59
71126;BME280;58785;55.566;38.058;2023-11-21T01:06:08;99794.91;;;-6.38;72.83
71126;BME280;58785;55.566;38.058;2023-11-21T01:08:34;99800.94;;;-6.37;72.67
71126;BME280;58785;55.566;38.058;2023-11-21T01:11:01;99794.97;;;-6.39;72.60
71126;BME280;58785;55.566;38.058;2023-11-21T01:13:27;99788.91;;;-6.40;72.42
71126;BME280;58785;55.566;38.058;2023-11-21T01:15:53;99779.41;;;-6.39;72.77
71126;BME280;58785;55.566;38.058;2023-11-21T01:18:19;99769.31;;;-6.48;72.55
71126;BME280;58785;55.566;38.058;2023-11-21T01:20:45;99775.00;;;-6.37;72.69
71126;BME280;58785;55.566;38.058;2023-11-21T01:23:15;99775.97;;;-6.40;72.61
71126;BME280;58785;55.566;38.058;2023-11-21T01:25:41;99775.59;;;-6.29;72.74
71126;BME280;58785;55.566;38.058;2023-11-21T01:28:06;99778.16;;;-6.27;72.56
71126;BME280;58785;55.566;38.058;2023-11-21T01:30:32;99764.44;;;-6.31;72.46
71126;BME280;58785;55.566;38.058;2023-11-21T01:32:58;99769.41;;;-6.25;72.27
71126;BME280;58785;55.566;38.058;2023-11-21T01:35:24;99771.41;;;-6.33;71.82
71126;BME280;58785;55.566;38.058;2023-11-21T01:37:50;99773.94;;;-6.31;72.20
71126;BME280;58785;55.566;38.058;2023-11-21T01:40:16;99765.22;;;-6.29;72.48
71126;BME280;58785;55.566;38.058;2023-11-21T01:42:42;99782.53;;;-6.29;72.63
71126;BME280;58785;55.566;38.058;2023-11-21T01:45:13;99786.13;;;-6.33;72.21
71126;BME280;58785;55.566;38.058;2023-11-21T01:47:40;99788.72;;;-6.33;72.37
71126;BME280;58785;55.566;38.058;2023-11-21T01:50:08;99775.78;;;-6.35;71.86
71126;BME280;58785;55.566;38.058;2023-11-21T01:52:35;99780.00;;;-6.31;72.28
71126;BME280;58785;55.566;38.058;2023-11-21T01:55:02;99782.53;;;-6.29;72.13
71126;BME280;58785;55.566;38.058;2023-11-21T01:57:29;99787.13;;;-6.38;72.00
71126;BME280;58785;55.566;38.058;2023-11-21T01:59:56;99778.56;;;-6.40;71.97
71126;BME280;58785;55.566;38.058;2023-11-21T02:02:24;99791.50;;;-6.40;72.69
71126;BME280;58785;55.566;38.058;2023-11-21T02:04:49;99797.44;;;-6.36;72.11
71126;BME280;58785;55.566;38.058;2023-11-21T02:07:15;99789.81;;;-6.41;72.21
71126;BME280;58785;55.566;38.058;2023-11-21T02:09:40;99797.72;;;-6.45;72.26
71126;BME280;58785;55.566;38.058;2023-11-21T02:12:08;99796.66;;;-6.38;72.49
71126;BME280;58785;55.566;38.058;2023-11-21T02:14:36;99787.97;;;-6.37;72.73
71126;BME280;58785;55.566;38.058;2023-11-21T02:17:02;99786.88;;;-6.30;71.87
71126;BME280;58785;55.566;38.058;2023-11-21T02:19:29;99797.03;;;-6.24;71.87
71126;BME280;58785;55.566;38.058;2023-11-21T02:22:15;99808.38;;;-6.26;72.21
71126;BME280;58785;55.566;38.058;2023-11-21T02:24:41;99784.38;;;-6.33;72.06
71126;BME280;58785;55.566;38.058;2023-11-21T02:27:08;99786.16;;;-6.35;72.24
71126;BME280;58785;55.566;38.058;2023-11-21T02:29:33;99785.25;;;-6.34;72.12
71126;BME280;58785;55.566;38.058;2023-11-21T02:31:59;99779.88;;;-6.28;72.00
71126;BME280;58785;55.566;38.058;2023-11-21T02:34:25;99791.00;;;-6.24;72.20
71126;BME280;58785;55.566;38.058;2023-11-21T02:36:50;99777.34;;;-6.29;71.92
71126;BME280;58785;55.566;38.058;2023-11-21T02:39:17;99793.00;;;-6.32;71.44
71126;BME280;58785;55.566;38.058;2023-11-21T02:41:44;99789.66;;;-6.36;71.89
71126;BME280;58785;55.566;38.058;2023-11-21T02:44:10;99797.25;;;-6.30;71.75
71126;BME280;58785;55.566;38.058;2023-11-21T02:46:36;99790.31;;;-6.29;71.54
71126;BME280;58785;55.566;38.058;2023-11-21T02:49:03;99806.72;;;-6.29;72.33
71126;BME280;58785;55.566;38.058;2023-11-21T02:51:30;99804.19;;;-6.30;72.14
71126;BME280;58785;55.566;38.058;2023-11-21T02:53:56;99814.03;;;-6.42;71.61
71126;BME280;58785;55.566;38.058;2023-11-21T02:56:26;99807.56;;;-6.55;72.33
71126;BME280;58785;55.566;38.058;2023-11-21T02:58:52;99835.00;;;-6.48;72.00
71126;BME280;58785;55.566;38.058;2023-11-21T03:01:18;99832.34;;;-6.46;71.62
71126;BME280;58785;55.566;38.058;2023-11-21T03:03:44;99832.16;;;-6.40;71.82
71126;BME280;58785;55.566;38.058;2023-11-21T03:06:09;99829.66;;;-6.43;71.82
71126;BME280;58785;55.566;38.058;2023-11-21T03:08:35;99833.91;;;-6.41;72.04
71126;BME280;58785;55.566;38.058;2023-11-21T03:11:01;99832.19;;;-6.42;71.48
71126;BME280;58785;55.566;38.058;2023-11-21T03:13:29;99833.34;;;-6.50;71.67
71126;BME280;58785;55.566;38.058;2023-11-21T03:15:54;99839.47;;;-6.53;72.17
71126;BME280;58785;55.566;38.058;2023-11-21T03:18:21;99841.41;;;-6.59;71.48
71126;BME280;58785;55.566;38.058;2023-11-21T03:20:52;99841.81;;;-6.45;71.82
71126;BME280;58785;55.566;38.058;2023-11-21T03:23:17;99843.47;;;-6.43;71.56
71126;BME280;58785;55.566;38.058;2023-11-21T03:25:43;99847.56;;;-6.35;71.86
71126;BME280;58785;55.566;38.058;2023-11-21T03:28:09;99843.97;;;-6.31;71.74
71126;BME280;58785;55.566;38.058;2023-11-21T03:30:34;99848.06;;;-6.24;71.83
71126;BME280;58785;55.566;38.058;2023-11-21T03:33:00;99845.88;;;-6.37;71.28
71126;BME280;58785;55.566;38.058;2023-11-21T03:35:26;99854.50;;;-6.36;71.17
71126;BME280;58785;55.566;38.058;2023-11-21T03:37:53;99849.97;;;-6.29;71.26
71126;BME280;58785;55.566;38.058;2023-11-21T03:40:19;99848.22;;;-6.29;71.45
71126;BME280;58785;55.566;38.058;2023-11-21T03:42:46;99841.13;;;-6.24;71.13
71126;BME280;58785;55.566;38.058;2023-11-21T03:45:12;99853.09;;;-6.18;71.47
71126;BME280;58785;55.566;38.058;2023-11-21T03:47:41;99855.69;;;-6.18;70.72
71126;BME280;58785;55.566;38.058;2023-11-21T03:50:08;99860.94;;;-6.21;70.46
71126;BME280;58785;55.566;38.058;2023-11-21T03:52:37;99858.31;;;-6.20;71.39
71126;BME280;58785;55.566;38.058;2023-11-21T03:55:02;99863.69;;;-6.26;70.88
71126;BME280;58785;55.566;38.058;2023-11-21T03:57:29;99854.22;;;-6.27;71.30
71126;BME280;58785;55.566;38.058;2023-11-21T03:59:54;99853.22;;;-6.23;70.76
71126;BME280;58785;55.566;38.058;2023-11-21T04:02:20;99852.53;;;-6.28;70.90
71126;BME280;58785;55.566;38.058;2023-11-21T04:04:46;99854.22;;;-6.27;71.35
71126;BME280;58785;55.566;38.058;2023-11-21T04:07:11;99855.97;;;-6.27;70.50
71126;BME280;58785;55.566;38.058;2023-11-21T04:09:42;99855.25;;;-6.32;70.99
71126;BME280;58785;55.566;38.058;2023-11-21T04:12:07;99859.78;;;-6.39;70.75
71126;BME280;58785;55.566;38.058;2023-11-21T04:14:35;99846.31;;;-6.50;70.69
71126;BME280;58785;55.566;38.058;2023-11-21T04:17:01;99846.16;;;-6.46;71.29
71126;BME280;58785;55.566;38.058;2023-11-21T04:19:26;99856.81;;;-6.27;71.01
71126;BME280;58785;55.566;38.058;2023-11-21T04:21:52;99855.81;;;-6.23;70.54
71126;BME280;58785;55.566;38.058;2023-11-21T04:24:18;99853.25;;;-6.24;70.84
71126;BME280;58785;55.566;38.058;2023-11-21T04:26:44;99856.34;;;-6.40;70.41
71126;BME280;58785;55.566;38.058;2023-11-21T04:29:10;99853.84;;;-6.43;70.45
71126;BME280;58785;55.566;38.058;2023-11-21T04:31:35;99859.69;;;-6.36;70.76
71126;BME280;58785;55.566;38.058;2023-11-21T04:34:01;99865.22;;;-6.47;70.15
71126;BME280;58785;55.566;38.058;2023-11-21T04:36:29;99861.06;;;-6.52;70.85
71126;BME280;58785;55.566;38.058;2023-11-21T04:38:56;99877.56;;;-6.55;70.81
71126;BME280;58785;55.566;38.058;2023-11-21T04:41:22;99871.56;;;-6.57;70.87
71126;BME280;58785;55.566;38.058;2023-11-21T04:43:47;99866.38;;;-6.57;70.58
71126;BME280;58785;55.566;38.058;2023-11-21T04:46:13;99853.38;;;-6.55;70.45
71126;BME280;58785;55.566;38.058;2023-11-21T04:48:39;99855.84;;;-6.51;70.67
71126;BME280;58785;55.566;38.058;2023-11-21T04:51:04;99862.72;;;-6.50;70.34
71126;BME280;58785;55.566;38.058;2023-11-21T04:53:30;99872.38;;;-6.55;70.24
71126;BME280;58785;55.566;38.058;2023-11-21T04:55:56;99856.28;;;-6.66;70.88
71126;BME280;58785;55.566;38.058;2023-11-21T04:58:22;99859.56;;;-6.59;70.71
71126;BME280;58785;55.566;38.058;2023-11-21T05:00:47;99863.84;;;-6.58;70.49
71126;BME280;58785;55.566;38.058;2023-11-21T05:03:13;99858.78;;;-6.63;70.94
71126;BME280;58785;55.566;38.058;2023-11-21T05:05:38;99867.41;;;-6.61;70.91
71126;BME280;58785;55.566;38.058;2023-11-21T05:08:04;99873.44;;;-6.60;70.94
71126;BME280;58785;55.566;38.058;2023-11-21T05:10:30;99876.03;;;-6.62;70.70
71126;BME280;58785;55.566;38.058;2023-11-21T05:12:56;99869.78;;;-6.55;70.59
71126;BME280;58785;55.566;38.058;2023-11-21T05:15:21;99881.72;;;-6.49;70.21
71126;BME280;58785;55.566;38.058;2023-11-21T05:17:48;99894.88;;;-6.55;70.68
71126;BME280;58785;55.566;38.058;2023-11-21T05:20:15;99897.41;;;-6.54;70.99
71126;BME280;58785;55.566;38.058;2023-11-21T05:22:49;99901.75;;;-6.54;71.06
71126;BME280;58785;55.566;38.058;2023-11-21T05:25:15;99892.44;;;-6.61;71.04
71126;BME280;58785;55.566;38.058;2023-11-21T05:27:42;99885.56;;;-6.62;71.21
71126;BME280;58785;55.566;38.058;2023-11-21T05:30:08;99894.19;;;-6.62;71.59
71126;BME280;58785;55.566;38.058;2023-11-21T05:32:37;99892.38;;;-6.58;71.90
71126;BME280;58785;55.566;38.058;2023-11-21T05:35:03;99896.59;;;-6.56;72.25
71126;BME280;58785;55.566;38.058;2023-11-21T05:37:30;99881.72;;;-6.49;71.92
71126;BME280;58785;55.566;38.058;2023-11-21T05:39:55;99878.41;;;-6.54;71.68
71126;BME280;58785;55.566;38.058;2023-11-21T05:42:25;99892.91;;;-6.47;72.03
71126;BME280;58785;55.566;38.058;2023-11-21T05:44:50;99889.22;;;-6.40;71.92
71126;BME280;58785;55.566;38.058;2023-11-21T05:47:16;99892.75;;;-6.43;71.78
71126;BME280;58785;55.566;38.058;2023-11-21T05:49:43;99893.53;;;-6.39;72.12
71126;BME280;58785;55.566;38.058;2023-11-21T05:52:10;99907.97;;;-6.32;72.08
71126;BME280;58785;55.566;38.058;2023-11-21T05:54:36;99906.09;;;-6.27;71.79
71126;BME280;58785;55.566;38.058;2023-11-21T05:57:01;99913.03;;;-6.27;71.45
71126;BME280;58785;55.566;38.058;2023-11-21T05:59:27;99921.56;;;-6.24;72.03
71126;BME280;58785;55.566;38.058;2023-11-21T06:01:53;99923.19;;;-6.20;72.22
71126;BME280;58785;55.566;38.058;2023-11-21T06:04:19;99919.69;;;-6.19;71.42
71126;BME280;58785;55.566;38.058;2023-11-21T06:06:47;99915.00;;;-6.07;71.47
71126;BME280;58785;55.566;38.058;2023-11-21T06:09:13;99918.56;;;-6.10;71.99
71126;BME280;58785;55.566;38.058;2023-11-21T06:11:38;99931.38;;;-6.05;71.84
71126;BME280;58785;55.566;38.058;2023-11-21T06:14:04;99924.59;;;-6.10;71.18
71126;BME280;58785;55.566;38.058;2023-11-21T06:16:33;99921.06;;;-6.07;71.52
71126;BME280;58785;55.566;38.058;2023-11-21T06:18:59;99923.50;;;-6.02;71.42
71126;BME280;58785;55.566;38.058;2023-11-21T06:21:24;99932.16;;;-6.03;71.52
71126;BME280;58785;55.566;38.058;2023-11-21T06:23:50;99921.78;;;-6.03;71.72
71126;BME280;58785;55.566;38.058;2023-11-21T06:26:18;99923.31;;;-5.96;71.41
71126;BME280;58785;55.566;38.058;2023-11-21T06:28:44;99931.63;;;-5.87;71.38
71126;BME280;58785;55.566;38.058;2023-11-21T06:31:10;99938.72;;;-5.92;70.54
71126;BME280;58785;55.566;38.058;2023-11-21T06:33:36;99942.97;;;-5.89;71.40
71126;BME280;58785;55.566;38.058;2023-11-21T06:36:02;99941.53;;;-5.98;70.76
71126;BME280;58785;55.566;38.058;2023-11-21T06:38:28;99937.41;;;-6.05;70.83
71126;BME280;58785;55.566;38.058;2023-11-21T06:40:56;99936.28;;;-5.96;71.43
71126;BME280;58785;55.566;38.058;2023-11-21T06:43:23;99934.38;;;-5.91;71.17
71126;BME280;58785;55.566;38.058;2023-11-21T06:45:49;99937.31;;;-5.75;70.93
71126;BME280;58785;55.566;38.058;2023-11-21T06:48:15;99934.56;;;-5.71;70.76
71126;BME280;58785;55.566;38.058;2023-11-21T06:50:41;99944.19;;;-5.74;70.32
71126;BME280;58785;55.566;38.058;2023-11-21T06:53:07;99939.25;;;-5.82;70.43
71126;BME280;58785;55.566;38.058;2023-11-21T06:55:37;99933.31;;;-5.86;70.99
71126;BME280;58785;55.566;38.058;2023-11-21T06:58:02;99915.47;;;-5.95;70.82
71126;BME280;58785;55.566;38.058;2023-11-21T07:00:28;99929.44;;;-5.99;71.04
71126;BME280;58785;55.566;38.058;2023-11-21T07:02:54;99914.16;;;-6.08;71.60
71126;BME280;58785;55.566;38.058;2023-11-21T07:05:22;99924.22;;;-5.97;71.38
71126;BME280;58785;55.566;38.058;2023-11-21T07:07:49;99911.53;;;-5.82;71.07
71126;BME280;58785;55.566;38.058;2023-11-21T07:10:15;99914.00;;;-5.77;70.82
71126;BME280;58785;55.566;38.058;2023-11-21T07:12:40;99900.53;;;-5.63;70.64
71126;BME280;58785;55.566;38.058;2023-11-21T07:15:07;99913.28;;;-5.56;69.83
71126;BME280;58785;55.566;38.058;2023-11-21T07:17:35;99908.25;;;-5.60;69.87
71126;BME280;58785;55.566;38.058;2023-11-21T07:20:01;99922.16;;;-5.63;70.58
71126;BME280;58785;55.566;38.058;2023-11-21T07:22:30;99912.94;;;-5.71;69.88
71126;BME280;58785;55.566;38.058;2023-11-21T07:24:56;99911.44;;;-5.79;70.19
71126;BME280;58785;55.566;38.058;2023-11-21T07:27:24;99929.69;;;-5.80;70.68
71126;BME280;58785;55.566;38.058;2023-11-21T07:29:50;99930.06;;;-5.66;70.24
71126;BME280;58785;55.566;38.058;2023-11-21T07:32:15;99935.31;;;-5.67;69.93
71126;BME280;58785;55.566;38.058;2023-11-21T07:34:41;99938.56;;;-5.61;70.46
71126;BME280;58785;55.566;38.058;2023-11-21T07:37:08;99938.41;;;-5.56;69.51
71126;BME280;58785;55.566;38.058;2023-11-21T07:39:36;99943.41;;;-5.50;69.61
71126;BME280;58785;55.566;38.058;2023-11-21T07:42:02;99940.28;;;-5.35;69.06
71126;BME280;58785;55.566;38.058;2023-11-21T07:44:28;99936.91;;;-5.37;68.82
71126;BME280;58785;55.566;38.058;2023-11-21T07:46:54;99938.47;;;-5.33;68.92
71126;BME280;58785;55.566;38.058;2023-11-21T07:49:24;99937.69;;;-5.35;68.27
71126;BME280;58785;55.566;38.058;2023-11-21T07:51:50;99934.13;;;-5.32;69.15
71126;BME280;58785;55.566;38.058;2023-11-21T07:54:16;99938.41;;;-5.31;68.50
71126;BME280;58785;55.566;38.058;2023-11-21T07:56:41;99925.34;;;-5.28;68.71
71126;BME280;58785;55.566;38.058;2023-11-21T07:59:08;99926.44;;;-5.35;68.67
71126;BME280;58785;55.566;38.058;2023-11-21T08:01:33;99921.56;;;-5.44;68.29
71126;BME280;58785;55.566;38.058;2023-11-21T08:03:59;99925.31;;;-5.53;67.96
71126;BME280;58785;55.566;38.058;2023-11-21T08:06:29;99929.28;;;-5.43;68.77
71126;BME280;58785;55.566;38.058;2023-11-21T08:08:56;99919.75;;;-5.42;67.21
71126;BME280;58785;55.566;38.058;2023-11-21T08:11:22;99923.25;;;-5.43;67.89
71126;BME280;58785;55.566;38.058;2023-11-21T08:13:48;99927.84;;;-5.52;67.55
71126;BME280;58785;55.566;38.058;2023-11-21T08:16:14;99927.97;;;-5.55;67.96
71126;BME280;58785;55.566;38.058;2023-11-21T08:18:40;99930.38;;;-5.48;67.67
71126;BME280;58785;55.566;38.058;2023-11-21T08:21:06;99931.84;;;-5.41;67.69
71126;BME280;58785;55.566;38.058;2023-11-21T08:23:34;99936.78;;;-5.59;67.58
71126;BME280;58785;55.566;38.058;2023-11-21T08:26:00;99936.41;;;-5.48;67.83
71126;BME280;58785;55.566;38.058;2023-11-21T08:28:26;99932.66;;;-5.39;67.96
71126;BME280;58785;55.566;38.058;2023-11-21T08:30:52;99925.16;;;-5.48;67.43
71126;BME280;58785;55.566;38.058;2023-11-21T08:33:19;99935.50;;;-5.47;67.61
71126;BME280;58785;55.566;38.058;2023-11-21T08:35:45;99930.63;;;-5.56;67.15
71126;BME280;58785;55.566;38.058;2023-11-21T08:38:12;99935.81;;;-5.56;67.61
71126;BME280;58785;55.566;38.058;2023-11-21T08:40:38;99937.56;;;-5.57;66.82
71126;BME280;58785;55.566;38.058;2023-11-21T08:43:04;99941.31;;;-5.65;67.02
71126;BME280;58785;55.566;38.058;2023-11-21T08:45:34;99949.25;;;-5.70;66.86
71126;BME280;58785;55.566;38.058;2023-11-21T08:48:01;99950.94;;;-5.69;67.42
71126;BME280;58785;55.566;38.058;2023-11-21T08:50:27;99946.66;;;-5.70;67.12
71126;BME280;58785;55.566;38.058;2023-11-21T08:52:53;99941.84;;;-5.56;67.89
71126;BME280;58785;55.566;38.058;2023-11-21T08:55:19;99949.16;;;-5.40;66.60
71126;BME280;58785;55.566;38.058;2023-11-21T08:57:45;99939.19;;;-5.28;67.48
71126;BME280;58785;55.566;38.058;2023-11-21T09:00:15;99938.75;;;-5.15;66.68
71126;BME280;58785;55.566;38.058;2023-11-21T09:02:43;99943.56;;;-5.05;67.01
71126;BME280;58785;55.566;38.058;2023-11-21T09:05:10;99949.00;;;-5.11;66.79
71126;BME280;58785;55.566;38.058;2023-11-21T09:07:36;99950.66;;;-5.35;66.82
71126;BME280;58785;55.566;38.058;2023-11-21T09:10:05;99954.22;;;-5.37;66.97
71126;BME280;58785;55.566;38.058;2023-11-21T09:12:37;99959.25;;;-5.33;67.32
71126;BME280;58785;55.566;38.058;2023-11-21T09:15:06;99953.16;;;-5.32;67.63
71126;BME280;58785;55.566;38.058;2023-11-21T09:17:33;99964.41;;;-5.31;67.16
71126;BME280;58785;55.566;38.058;2023-11-21T09:20:00;99954.06;;;-5.33;68.31
71126;BME280;58785;55.566;38.058;2023-11-21T09:22:26;99958.28;;;-5.29;68.20
71126;BME280;58785;55.566;38.058;2023-11-21T09:24:52;99961.00;;;-5.33;68.18
71126;BME280;58785;55.566;38.058;2023-11-21T09:27:19;99952.13;;;-5.26;68.47
71126;BME280;58785;55.566;38.058;2023-11-21T09:29:44;99957.13;;;-5.20;68.39
71126;BME280;58785;55.566;38.058;2023-11-21T09:32:11;99959.72;;;-5.20;68.53
71126;BME280;58785;55.566;38.058;2023-11-21T09:34:39;99958.09;;;-5.24;68.86
71126;BME280;58785;55.566;38.058;2023-11-21T09:37:06;99966.91;;;-5.28;68.45
71126;BME280;58785;55.566;38.058;2023-11-21T09:39:33;99965.47;;;-5.37;68.33
71126;BME280;58785;55.566;38.058;2023-11-21T09:42:12;99952.47;;;-5.37;68.37
71126;BME280;58785;55.566;38.058;2023-11-21T09:47:10;99972.84;;;-5.50;68.42
71126;BME280;58785;55.566;38.058;2023-11-21T09:49:39;99971.31;;;-5.57;68.93
71126;BME280;58785;55.566;38.058;2023-11-21T09:52:08;99976.47;;;-5.55;69.18
71126;BME280;58785;55.566;38.058;2023-11-21T09:54:43;99973.75;;;-5.52;68.90
71126;BME280;58785;55.566;38.058;2023-11-21T09:57:10;99963.66;;;-5.60;68.43
71126;BME280;58785;55.566;38.058;2023-11-21T09:59:36;99964.19;;;-5.50;69.08
71126;BME280;58785;55.566;38.058;2023-11-21T10:02:03;99964.94;;;-5.46;68.61
71126;BME280;58785;55.566;38.058;2023-11-21T10:04:31;99957.50;;;-5.57;68.48
71126;BME280;58785;55.566;38.058;2023-11-21T10:06:57;99964.97;;;-5.48;68.26
71126;BME280;58785;55.566;38.058;2023-11-21T10:09:23;99962.13;;;-5.40;68.42
71126;BME280;58785;55.566;38.058;2023-11-21T10:11:50;99969.09;;;-5.41;68.09
71126;BME280;58785;55.566;38.058;2023-11-21T10:14:18;99962.97;;;-5.40;67.49
71126;BME280;58785;55.566;38.058;2023-11-21T10:16:45;99962.44;;;-5.50;67.38
71126;BME280;58785;55.566;38.058;2023-11-21T10:19:12;99967.03;;;-5.58;67.25
71126;BME280;58785;55.566;38.058;2023-11-21T10:21:39;99966.25;;;-5.61;67.27
71126;BME280;58785;55.566;38.058;2023-11-21T10:24:05;99964.28;;;-5.53;67.03
71126;BME280;58785;55.566;38.058;2023-11-21T10:26:32;99962.38;;;-5.48;67.58
71126;BME280;58785;55.566;38.058;2023-11-21T10:28:59;99957.25;;;-5.50;67.09
71126;BME280;58785;55.566;38.058;2023-11-21T10:31:34;99958.22;;;-5.54;66.83
71126;BME280;58785;55.566;38.058;2023-11-21T10:34:20;99970.31;;;-5.53;67.06
71126;BME280;58785;55.566;38.058;2023-11-21T10:36:47;99971.16;;;-5.52;66.83
71126;BME280;58785;55.566;38.058;2023-11-21T10:39:19;99965.66;;;-5.43;67.03
71126;BME280;58785;55.566;38.058;2023-11-21T10:41:47;99972.25;;;-5.33;66.95
71126;BME280;58785;55.566;38.058;2023-11-21T10:44:17;99964.25;;;-5.27;66.59
71126;BME280;58785;55.566;38.058;2023-11-21T10:46:48;99969.16;;;-5.17;66.64
71126;BME280;58785;55.566;38.058;2023-11-21T10:49:18;99956.66;;;-5.33;65.95
71126;BME280;58785;55.566;38.058;2023-11-21T10:51:44;99971.03;;;-5.23;66.08
71126;BME280;58785;55.566;38.058;2023-11-21T10:54:10;99974.78;;;-5.31;65.19
71126;BME280;58785;55.566;38.058;2023-11-21T10:56:39;99976.59;;;-5.33;66.09
71126;BME280;58785;55.566;38.058;2023-11-21T10:59:09;99965.91;;;-5.24;66.25
71126;BME280;58785;55.566;38.058;2023-11-21T11:01:47;99964.25;;;-5.27;65.94
71126;BME280;58785;55.566;38.058;2023-11-21T11:04:15;99976.09;;;-5.18;65.43
71126;BME280;58785;55.566;38.058;2023-11-21T11:06:43;99971.94;;;-5.24;65.72
71126;BME280;58785;55.566;38.058;2023-11-21T11:09:13;99974.97;;;-5.36;66.22
71126;BME280;58785;55.566;38.058;2023-11-21T11:11:43;99978.88;;;-5.24;65.84
71126;BME280;58785;55.566;38.058;2023-11-21T11:14:13;99988.38;;;-5.23;65.60
71126;BME280;58785;55.566;38.058;2023-11-21T11:16:40;99972.97;;;-5.28;65.49
71126;BME280;58785;55.566;38.058;2023-11-21T11:19:09;99978.34;;;-5.34;65.20
71126;BME280;58785;55.566;38.058;2023-11-21T11:33:22;99977.19;;;-5.25;65.62
71126;BME280;58785;55.566;38.058;2023-11-21T11:35:57;99975.44;;;-5.25;65.42
71126;BME280;58785;55.566;38.058;2023-11-21T11:38:31;99979.13;;;-5.30;65.48
71126;BME280;58785;55.566;38.058;2023-11-21T11:41:01;99975.75;;;-5.34;66.21
71126;BME280;58785;55.566;38.058;2023-11-21T11:43:28;99978.66;;;-5.43;66.54
71126;BME280;58785;55.566;38.058;2023-11-21T11:45:57;99972.97;;;-5.28;66.96
71126;BME280;58785;55.566;38.058;2023-11-21T11:48:29;99981.06;;;-5.12;66.71
71126;BME280;58785;55.566;38.058;2023-11-21T11:53:41;99978.84;;;-4.98;66.34
71126;BME280;58785;55.566;38.058;2023-11-21T11:56:28;99979.66;;;-4.96;67.00
71126;BME280;58785;55.566;38.058;2023-11-21T11:59:00;99990.84;;;-4.94;66.88
71126;BME280;58785;55.566;38.058;2023-11-21T12:01:28;99977.94;;;-4.97;67.11
71126;BME280;58785;55.566;38.058;2023-11-21T12:07:02;99989.53;;;-4.80;66.35
71126;BME280;58785;55.566;38.058;2023-11-21T12:09:30;99989.56;;;-4.82;66.56
71126;BME280;58785;55.566;38.058;2023-11-21T12:11:57;99996.88;;;-4.93;66.83
71126;BME280;58785;55.566;38.058;2023-11-21T12:14:23;100001.28;;;-4.95;66.97
71126;BME280;58785;55.566;38.058;2023-11-21T12:16:49;99990.53;;;-5.09;66.83
71126;BME280;58785;55.566;38.058;2023-11-21T12:19:15;100003.63;;;-5.12;67.61
71126;BME280;58785;55.566;38.058;2023-11-21T12:21:40;99996.88;;;-5.18;67.63
71126;BME280;58785;55.566;38.058;2023-11-21T12:24:07;99995.75;;;-5.36;68.16
71126;BME280;58785;55.566;38.058;2023-11-21T12:26:37;100003.44;;;-5.33;68.59
71126;BME280;58785;55.566;38.058;2023-11-21T12:29:03;100004.38;;;-5.35;68.21
71126;BME280;58785;55.566;38.058;2023-11-21T12:31:30;100007.78;;;-5.33;67.98
71126;BME280;58785;55.566;38.058;2023-11-21T12:46:31;100022.09;;;-4.95;68.31
71126;BME280;58785;55.566;38.058;2023-11-21T12:48:59;100016.16;;;-4.99;68.50
71126;BME280;58785;55.566;38.058;2023-11-21T12:51:25;100025.06;;;-5.06;68.36
71126;BME280;58785;55.566;38.058;2023-11-21T12:53:51;100033.47;;;-5.24;68.78
71126;BME280;58785;55.566;38.058;2023-11-21T12:56:18;100026.19;;;-5.39;68.87
71126;BME280;58785;55.566;38.058;2023-11-21T12:58:45;100032.97;;;-5.35;68.42
71126;BME280;58785;55.566;38.058;2023-11-21T13:01:16;100035.72;;;-5.40;69.02
71126;BME280;58785;55.566;38.058;2023-11-21T13:03:47;100044.00;;;-5.55;68.72
71126;BME280;58785;55.566;38.058;2023-11-21T13:06:17;100044.34;;;-5.66;68.35
71126;BME280;58785;55.566;38.058;2023-11-21T13:08:45;100039.03;;;-5.63;68.80
71126;BME280;58785;55.566;38.058;2023-11-21T13:11:11;100033.84;;;-5.63;68.24
71126;BME280;58785;55.566;38.058;2023-11-21T13:13:40;100041.56;;;-5.61;68.20
71126;BME280;58785;55.566;38.058;2023-11-21T13:16:07;100057.47;;;-5.70;69.20
71126;BME280;58785;55.566;38.058;2023-11-21T13:18:34;100057.38;;;-5.67;68.81
71126;BME280;58785;55.566;38.058;2023-11-21T13:21:02;100060.94;;;-5.71;68.79